createdAt,value
2022-12-02T00:01:49.904Z,43.97
2022-12-02T00:04:23.825Z,53.55
2022-12-02T00:06:50.988Z,51.45
2022-12-02T00:09:46.645Z,47.75
2022-12-02T00:12:16.061Z,71.57
2022-12-02T00:14:42.499Z,48.05
2022-12-02T00:17:08.925Z,62.70
2022-12-02T00:19:35.499Z,65.30
2022-12-02T00:22:01.969Z,57.97
2022-12-02T00:24:28.602Z,53.53
2022-12-02T00:26:55.073Z,49.78
2022-12-02T00:29:21.537Z,66.75
2022-12-02T00:31:48.400Z,55.72
2022-12-02T00:34:15.150Z,75.90
2022-12-02T00:36:41.822Z,48.53
2022-12-02T00:39:10.031Z,55.92
2022-12-02T00:41:38.454Z,49.33
2022-12-02T00:44:23.660Z,88.18
2022-12-02T00:46:50.216Z,81.72
2022-12-02T00:49:17.112Z,58.80
2022-12-02T00:51:44.826Z,50.80
2022-12-02T00:54:12.589Z,51.75
2022-12-02T00:56:39.365Z,50.70
2022-12-02T00:59:06.271Z,58.03
2022-12-02T01:01:32.924Z,67.68
2022-12-02T01:03:59.780Z,39.13
2022-12-02T01:06:26.326Z,56.75
2022-12-02T01:08:52.768Z,68.05
2022-12-02T01:11:19.319Z,51.95
2022-12-02T01:13:46.056Z,51.13
2022-12-02T01:16:14.833Z,58.05
2022-12-02T01:18:41.441Z,65.90
2022-12-02T01:21:07.883Z,50.33
2022-12-02T01:23:35.973Z,54.38
2022-12-02T01:26:02.474Z,53.75
2022-12-02T01:28:29.113Z,46.25
2022-12-02T01:30:55.540Z,42.60
2022-12-02T01:33:23.460Z,47.20
2022-12-02T01:35:49.944Z,57.45
2022-12-02T01:38:16.369Z,60.22
2022-12-02T01:40:42.921Z,78.18
2022-12-02T01:43:09.474Z,53.25
2022-12-02T01:45:36.038Z,52.65
2022-12-02T01:48:02.738Z,41.00
2022-12-02T01:50:29.868Z,59.47
2022-12-02T01:52:58.562Z,47.08
2022-12-02T01:55:26.615Z,42.42
2022-12-02T01:57:53.200Z,53.65
2022-12-02T02:00:20.719Z,60.90
2022-12-02T02:02:47.578Z,61.17
2022-12-02T02:05:22.354Z,65.78
2022-12-02T02:07:51.211Z,46.95
2022-12-02T02:10:18.091Z,45.90
2022-12-02T02:12:45.934Z,55.33
2022-12-02T02:15:13.499Z,53.95
2022-12-02T02:17:39.981Z,46.28
2022-12-02T02:20:09.106Z,53.22
2022-12-02T02:23:02.192Z,58.85
2022-12-02T02:25:30.233Z,43.00
2022-12-02T02:27:58.371Z,50.35
2022-12-02T02:30:27.263Z,56.08
2022-12-02T02:32:54.127Z,44.75
2022-12-02T02:35:21.324Z,42.15
2022-12-02T02:37:48.879Z,44.25
2022-12-02T02:40:16.365Z,70.70
2022-12-02T02:42:44.875Z,40.90
2022-12-02T02:45:11.559Z,55.28
2022-12-02T02:47:38.861Z,47.65
2022-12-02T02:50:06.471Z,65.38
2022-12-02T02:52:33.202Z,47.97
2022-12-02T02:54:59.728Z,40.05
2022-12-02T02:57:27.335Z,41.42
2022-12-02T02:59:55.477Z,52.00
2022-12-02T03:02:23.875Z,70.43
2022-12-02T03:04:50.909Z,46.95
2022-12-02T03:07:17.871Z,52.08
2022-12-02T03:09:44.492Z,56.30
2022-12-02T03:12:11.151Z,70.68
2022-12-02T03:14:37.678Z,43.58
2022-12-02T03:17:04.675Z,74.55
2022-12-02T03:19:32.593Z,38.05
2022-12-02T03:21:59.954Z,55.15
2022-12-02T03:24:26.466Z,52.60
2022-12-02T03:26:52.938Z,45.42
2022-12-02T03:29:20.255Z,46.30
2022-12-02T03:31:47.896Z,46.30
2022-12-02T03:34:14.729Z,70.97
2022-12-02T03:36:41.305Z,57.42
2022-12-02T03:39:08.207Z,61.80
2022-12-02T03:41:34.634Z,38.30
2022-12-02T03:44:01.349Z,65.80
2022-12-02T03:46:28.722Z,62.35
2022-12-02T03:48:55.812Z,41.55
2022-12-02T03:51:22.376Z,46.58
2022-12-02T03:53:48.995Z,61.85
2022-12-02T03:56:15.495Z,61.58
2022-12-02T03:58:47.296Z,50.53
2022-12-02T04:01:14.324Z,46.95
2022-12-02T04:03:41.019Z,46.88
2022-12-02T04:06:07.513Z,58.17
2022-12-02T04:08:34.012Z,53.28
2022-12-02T04:11:00.511Z,44.63
2022-12-02T04:13:26.989Z,40.22
2022-12-02T04:15:53.526Z,55.38
2022-12-02T04:18:20.165Z,47.47
2022-12-02T04:20:46.761Z,51.47
2022-12-02T04:23:13.237Z,59.67
2022-12-02T04:25:39.717Z,60.28
2022-12-02T04:28:06.833Z,43.88
2022-12-02T04:30:33.295Z,41.20
2022-12-02T04:32:59.756Z,46.88
2022-12-02T04:35:26.260Z,33.40
2022-12-02T04:37:54.147Z,46.47
2022-12-02T04:40:20.581Z,54.17
2022-12-02T04:42:47.912Z,38.15
2022-12-02T04:45:15.173Z,47.17
2022-12-02T04:47:41.746Z,61.90
2022-12-02T04:50:08.796Z,53.10
2022-12-02T04:52:35.210Z,41.97
2022-12-02T04:55:01.760Z,44.08
2022-12-02T04:57:31.601Z,49.13
2022-12-02T04:59:58.523Z,34.65
2022-12-02T05:02:25.240Z,60.35
2022-12-02T05:04:51.768Z,42.58
2022-12-02T05:07:18.217Z,52.05
2022-12-02T05:09:44.656Z,64.13
2022-12-02T05:12:11.172Z,61.55
2022-12-02T05:14:37.605Z,47.75
2022-12-02T05:17:04.101Z,69.13
2022-12-02T05:19:30.610Z,52.15
2022-12-02T05:21:57.061Z,50.05
2022-12-02T05:24:23.523Z,56.85
2022-12-02T05:26:50.094Z,46.47
2022-12-02T05:29:16.510Z,59.97
2022-12-02T05:31:43.066Z,53.05
2022-12-02T05:34:09.646Z,46.53
2022-12-02T05:36:37.888Z,46.45
2022-12-02T05:39:04.347Z,48.95
2022-12-02T05:41:30.776Z,51.08
2022-12-02T05:43:57.548Z,38.75
2022-12-02T05:46:24.197Z,51.13
2022-12-02T05:48:50.903Z,52.55
2022-12-02T05:51:19.633Z,59.60
2022-12-02T05:53:47.333Z,47.63
2022-12-02T05:56:17.505Z,67.25
2022-12-02T05:58:44.269Z,48.05
2022-12-02T06:01:34.134Z,70.18
2022-12-02T06:04:00.893Z,32.65
2022-12-02T06:06:34.517Z,58.20
2022-12-02T06:09:01.201Z,44.35
2022-12-02T06:11:29.533Z,44.65
2022-12-02T06:13:58.296Z,60.05
2022-12-02T06:16:25.979Z,73.70
2022-12-02T06:18:52.480Z,42.58
2022-12-02T06:21:20.624Z,62.38
2022-12-02T06:23:51.356Z,70.20
2022-12-02T06:26:19.183Z,62.92
2022-12-02T06:28:47.412Z,68.20
2022-12-02T06:31:19.480Z,76.80
2022-12-02T06:33:47.748Z,71.78
2022-12-02T06:36:22.228Z,75.25
2022-12-02T06:38:54.819Z,49.65
2022-12-02T06:41:22.522Z,67.90
2022-12-02T06:44:22.140Z,43.70
2022-12-02T06:46:48.641Z,66.40
2022-12-02T06:49:21.791Z,52.63
2022-12-02T06:51:53.094Z,57.25
2022-12-02T06:54:20.901Z,54.13
2022-12-02T06:56:47.377Z,51.40
2022-12-02T06:59:15.986Z,85.03
2022-12-02T07:01:43.339Z,51.58
2022-12-02T07:04:09.870Z,52.70
2022-12-02T07:06:40.385Z,61.00
2022-12-02T07:09:17.898Z,59.65
2022-12-02T07:11:55.777Z,87.97
2022-12-02T07:14:34.458Z,76.18
2022-12-02T07:17:06.567Z,62.55
2022-12-02T07:19:38.399Z,55.65
2022-12-02T07:22:13.354Z,62.30
2022-12-02T07:24:40.512Z,57.60
2022-12-02T07:27:22.371Z,53.00
2022-12-02T07:29:49.882Z,53.40
2022-12-02T07:32:16.315Z,81.00
2022-12-02T07:34:42.799Z,55.65
2022-12-02T07:37:09.239Z,67.50
2022-12-02T07:39:35.694Z,64.35
2022-12-02T07:42:02.355Z,58.50
2022-12-02T07:44:29.031Z,62.65
2022-12-02T07:46:55.543Z,48.55
2022-12-02T07:49:22.777Z,55.28
2022-12-02T07:51:49.629Z,62.47
2022-12-02T07:54:16.085Z,48.28
2022-12-02T07:56:42.742Z,59.80
2022-12-02T07:59:12.541Z,65.85
2022-12-02T08:01:39.627Z,57.42
2022-12-02T08:04:06.124Z,46.72
2022-12-02T08:06:38.729Z,55.55
2022-12-02T08:09:05.769Z,54.92
2022-12-02T08:11:32.309Z,78.75
2022-12-02T08:13:58.754Z,58.00
2022-12-02T08:16:25.264Z,54.72
2022-12-02T08:18:51.878Z,49.30
2022-12-02T08:21:18.345Z,54.08
2022-12-02T08:23:44.780Z,52.10
2022-12-02T08:26:11.270Z,88.30
2022-12-02T08:28:37.796Z,52.53
2022-12-02T08:31:04.344Z,62.90
2022-12-02T08:33:30.881Z,64.93
2022-12-02T08:35:57.383Z,60.13
2022-12-02T08:38:23.877Z,79.05
2022-12-02T08:40:50.368Z,69.85
2022-12-02T08:43:16.810Z,73.75
2022-12-02T08:45:43.417Z,69.38
2022-12-02T08:48:09.897Z,61.03
2022-12-02T08:50:36.308Z,75.28
2022-12-02T08:53:03.041Z,66.40
2022-12-02T08:55:29.623Z,57.08
2022-12-02T08:57:56.305Z,51.70
2022-12-02T09:00:23.354Z,65.88
2022-12-02T09:02:49.985Z,63.65
2022-12-02T09:05:16.815Z,68.50
2022-12-02T09:07:43.280Z,75.85
2022-12-02T09:10:10.881Z,80.63
2022-12-02T09:12:38.390Z,58.45
2022-12-02T09:15:05.310Z,73.63
2022-12-02T09:17:31.995Z,61.45
2022-12-02T09:19:58.475Z,56.35
2022-12-02T09:22:24.975Z,63.40
2022-12-02T09:24:51.933Z,66.70
2022-12-02T09:27:18.571Z,65.70
2022-12-02T09:29:45.108Z,65.88
2022-12-02T09:32:11.578Z,81.00
2022-12-02T09:34:38.048Z,87.13
2022-12-02T09:37:04.604Z,60.90
2022-12-02T09:39:35.549Z,77.50
2022-12-02T09:42:05.472Z,63.88
2022-12-02T09:44:32.073Z,65.60
2022-12-02T09:46:58.946Z,73.15
2022-12-02T09:49:25.745Z,76.57
2022-12-02T09:51:53.385Z,64.18
2022-12-02T09:54:19.800Z,70.72
2022-12-02T09:56:46.965Z,77.35
2022-12-02T09:59:14.791Z,79.43
2022-12-02T10:01:45.295Z,67.82
2022-12-02T10:04:14.170Z,67.78
2022-12-02T10:06:41.328Z,66.72
2022-12-02T10:09:11.918Z,76.88
2022-12-02T10:11:38.705Z,70.13
2022-12-02T10:14:07.045Z,76.47
2022-12-02T10:16:34.393Z,78.43
2022-12-02T10:19:01.939Z,71.20
2022-12-02T10:21:28.440Z,59.20
2022-12-02T10:23:59.638Z,62.05
2022-12-02T10:26:26.425Z,63.30
2022-12-02T10:29:15.521Z,59.15
2022-12-02T10:31:52.716Z,59.05
2022-12-02T10:34:20.347Z,66.45
2022-12-02T10:36:47.011Z,70.70
2022-12-02T10:39:16.249Z,59.88
2022-12-02T10:41:42.782Z,64.63
2022-12-02T10:44:16.285Z,73.82
2022-12-02T10:49:29.133Z,77.20
2022-12-02T10:51:58.074Z,57.95
2022-12-02T10:54:29.211Z,76.18
2022-12-02T10:56:56.615Z,56.05
2022-12-02T10:59:23.980Z,66.70
2022-12-02T11:01:50.640Z,101.07
2022-12-02T11:04:18.001Z,69.68
2022-12-02T11:06:44.947Z,63.25
2022-12-02T11:12:28.234Z,66.97
2022-12-02T11:14:55.617Z,62.70
2022-12-02T11:17:41.095Z,70.50
2022-12-02T11:20:26.195Z,70.43
2022-12-02T11:23:06.883Z,67.68
2022-12-02T11:25:42.578Z,72.38
2022-12-02T11:28:19.343Z,89.07
2022-12-02T11:30:46.839Z,79.05
2022-12-02T11:33:14.393Z,77.97
2022-12-02T11:35:59.768Z,92.13
2022-12-02T11:38:26.424Z,72.10
2022-12-02T11:40:52.883Z,64.75
2022-12-02T11:43:38.055Z,83.03
2022-12-02T11:46:05.404Z,84.40
2022-12-02T11:48:32.186Z,66.03
2022-12-02T11:50:58.717Z,62.78
2022-12-02T11:53:25.306Z,72.07
2022-12-02T11:55:52.859Z,96.70
2022-12-02T11:58:25.551Z,74.03
2022-12-02T12:01:07.274Z,71.03
2022-12-02T12:03:34.450Z,62.42
2022-12-02T12:06:07.192Z,80.28
2022-12-02T12:08:33.724Z,89.65
2022-12-02T12:11:15.502Z,75.43
2022-12-02T12:14:00.114Z,99.90
2022-12-02T12:16:26.992Z,84.95
2022-12-02T12:18:53.937Z,66.07
2022-12-02T12:21:32.661Z,63.83
2022-12-02T12:24:28.513Z,66.45
2022-12-02T12:26:57.816Z,65.80
2022-12-02T12:29:25.869Z,68.03
2022-12-02T12:31:53.202Z,78.40
2022-12-02T12:34:19.659Z,85.00
2022-12-02T12:36:46.460Z,71.05
2022-12-02T12:39:13.675Z,66.18
2022-12-02T12:44:30.201Z,69.93
2022-12-02T12:46:59.677Z,86.70
2022-12-02T12:49:26.355Z,83.00
2022-12-02T12:51:52.841Z,79.35
2022-12-02T12:54:19.292Z,89.15
2022-12-02T12:56:45.741Z,93.05
2022-12-02T12:59:12.306Z,80.28
2022-12-02T13:01:38.777Z,70.22
2022-12-02T13:04:05.389Z,62.92
2022-12-02T13:06:31.858Z,86.53
2022-12-02T13:08:58.426Z,66.72
2022-12-02T13:11:26.210Z,73.20
2022-12-02T13:13:52.684Z,70.10
2022-12-02T13:16:19.167Z,83.90
2022-12-02T13:18:45.645Z,80.80
2022-12-02T13:21:12.208Z,78.40
2022-12-02T13:23:38.642Z,83.75
2022-12-02T13:26:05.227Z,90.00
2022-12-02T13:28:31.687Z,82.70
2022-12-02T13:30:58.154Z,82.43
2022-12-02T13:33:24.624Z,68.47
2022-12-02T13:35:51.115Z,74.93
2022-12-02T13:38:17.578Z,94.88
2022-12-02T13:40:49.093Z,91.45
2022-12-02T13:43:18.388Z,89.72
2022-12-02T13:45:44.894Z,80.30
2022-12-02T13:48:13.405Z,83.43
2022-12-02T13:50:40.120Z,84.72
2022-12-02T13:53:06.531Z,81.45
2022-12-02T13:55:32.974Z,69.75
2022-12-02T13:57:59.526Z,78.68
2022-12-02T14:00:26.057Z,74.03
2022-12-02T14:02:52.525Z,77.03
2022-12-02T14:05:18.973Z,78.47
2022-12-02T14:07:45.511Z,73.68
2022-12-02T14:10:12.091Z,104.93
2022-12-02T14:12:38.574Z,74.18
2022-12-02T14:15:05.392Z,72.38
2022-12-02T14:17:31.882Z,87.68
2022-12-02T14:19:58.346Z,68.15
2022-12-02T14:22:24.752Z,91.07
2022-12-02T14:24:51.518Z,71.15
2022-12-02T14:27:18.244Z,67.90
2022-12-02T14:29:44.750Z,71.50
2022-12-02T14:32:11.748Z,104.72
2022-12-02T14:34:38.248Z,70.75
2022-12-02T14:37:05.867Z,70.97
2022-12-02T14:39:35.118Z,79.65
2022-12-02T14:42:01.631Z,72.22
2022-12-02T14:44:28.196Z,85.25
2022-12-02T14:46:54.702Z,96.88
2022-12-02T14:49:38.962Z,68.80
2022-12-02T14:52:07.720Z,83.15
2022-12-02T14:54:34.245Z,78.50
2022-12-02T14:57:00.672Z,79.97
2022-12-02T14:59:27.127Z,79.10
2022-12-02T15:01:53.639Z,79.05
2022-12-02T15:04:20.247Z,90.63
2022-12-02T15:06:46.769Z,92.22
2022-12-02T15:09:13.305Z,79.35
2022-12-02T15:11:39.977Z,81.97
2022-12-02T15:14:06.453Z,75.82
2022-12-02T15:16:33.022Z,83.57
2022-12-02T15:18:59.500Z,73.45
2022-12-02T15:21:26.049Z,83.63
2022-12-02T15:23:52.495Z,78.38
2022-12-02T15:26:18.992Z,95.80
2022-12-02T15:28:45.551Z,73.72
2022-12-02T15:31:12.083Z,84.32
2022-12-02T15:33:38.617Z,61.13
2022-12-02T15:36:05.258Z,74.93
2022-12-02T15:38:33.150Z,97.45
2022-12-02T15:40:59.952Z,71.65
2022-12-02T15:43:26.570Z,75.75
2022-12-02T15:45:53.741Z,88.47
2022-12-02T15:48:20.411Z,87.63
2022-12-02T15:50:51.727Z,77.40
2022-12-02T15:53:21.180Z,85.80
2022-12-02T15:55:48.103Z,64.85
2022-12-02T15:58:14.613Z,74.20
2022-12-02T16:00:41.108Z,98.88
2022-12-02T16:03:07.636Z,79.32
2022-12-02T16:05:34.059Z,88.18
2022-12-02T16:08:00.605Z,78.57
2022-12-02T16:10:27.126Z,92.55
2022-12-02T16:12:53.554Z,65.10
2022-12-02T16:15:20.084Z,85.47
2022-12-02T16:17:46.612Z,82.85
2022-12-02T16:20:13.432Z,134.82
2022-12-02T16:22:39.848Z,73.75
2022-12-02T16:25:06.584Z,80.97
2022-12-02T16:27:33.052Z,83.88
2022-12-02T16:29:59.557Z,100.57
2022-12-02T16:32:26.237Z,89.20
2022-12-02T16:34:52.982Z,74.45
2022-12-02T16:37:21.747Z,77.50
2022-12-02T16:39:48.356Z,85.75
2022-12-02T16:42:14.834Z,102.60
2022-12-02T16:44:41.403Z,95.63
2022-12-02T16:47:08.045Z,79.25
2022-12-02T16:49:34.604Z,80.55
2022-12-02T16:52:01.026Z,106.90
2022-12-02T16:54:27.496Z,81.20
2022-12-02T16:56:56.147Z,90.10
2022-12-02T16:59:23.525Z,97.78
2022-12-02T17:01:50.048Z,83.65
2022-12-02T17:04:16.614Z,93.47
2022-12-02T17:06:43.092Z,83.00
2022-12-02T17:09:09.572Z,89.55
2022-12-02T17:11:35.996Z,80.75
2022-12-02T17:14:02.429Z,81.35
2022-12-02T17:16:28.980Z,74.65
2022-12-02T17:18:55.453Z,78.97
2022-12-02T17:21:21.901Z,84.70
2022-12-02T17:23:48.363Z,100.07
2022-12-02T17:26:14.824Z,89.80
2022-12-02T17:28:41.405Z,80.45
2022-12-02T17:31:07.894Z,79.47
2022-12-02T17:33:34.334Z,108.13
2022-12-02T17:36:00.801Z,72.85
2022-12-02T17:38:27.260Z,97.50
2022-12-02T17:41:11.893Z,81.47
2022-12-02T17:43:41.421Z,87.97
2022-12-02T17:46:07.892Z,100.72
2022-12-02T17:48:34.554Z,84.05
2022-12-02T17:51:01.071Z,86.95
2022-12-02T17:53:27.763Z,84.97
2022-12-02T17:55:54.331Z,104.93
2022-12-02T17:58:20.788Z,100.40
2022-12-02T18:00:47.229Z,95.68
2022-12-02T18:03:13.798Z,95.78
2022-12-02T18:05:40.338Z,100.82
2022-12-02T18:08:06.935Z,89.38
2022-12-02T18:10:33.472Z,75.93
2022-12-02T18:12:59.916Z,86.20
2022-12-02T18:15:26.798Z,79.45
2022-12-02T18:17:53.209Z,85.10
2022-12-02T18:20:19.663Z,110.20
2022-12-02T18:22:46.107Z,111.63
2022-12-02T18:25:12.621Z,92.93
2022-12-02T18:27:39.151Z,115.63
2022-12-02T18:30:05.978Z,88.60
2022-12-02T18:32:32.395Z,86.25
2022-12-02T18:34:58.893Z,75.00
2022-12-02T18:37:25.328Z,106.20
2022-12-02T18:39:51.925Z,77.85
2022-12-02T18:42:18.365Z,80.78
2022-12-02T18:44:44.819Z,83.65
2022-12-02T18:47:11.924Z,105.18
2022-12-02T18:49:42.614Z,95.30
2022-12-02T18:52:09.970Z,88.00
2022-12-02T18:54:36.530Z,77.22
2022-12-02T18:57:03.172Z,93.30
2022-12-02T18:59:30.216Z,95.85
2022-12-02T19:01:56.848Z,80.10
2022-12-02T19:04:23.370Z,92.85
2022-12-02T19:06:49.830Z,89.68
2022-12-02T19:09:16.313Z,95.78
2022-12-02T19:11:42.745Z,106.03
2022-12-02T19:14:09.198Z,108.97
2022-12-02T19:16:35.822Z,101.07
2022-12-02T19:19:02.318Z,89.25
2022-12-02T19:21:29.286Z,106.72
2022-12-02T19:23:55.791Z,80.22
2022-12-02T19:26:23.273Z,115.57
2022-12-02T19:28:49.822Z,86.18
2022-12-02T19:31:16.357Z,96.90
2022-12-02T19:33:43.003Z,101.03
2022-12-02T19:36:09.467Z,110.82
2022-12-02T19:38:35.896Z,97.47
2022-12-02T19:41:02.346Z,95.18
2022-12-02T19:43:33.913Z,91.30
2022-12-02T19:46:02.082Z,98.05
2022-12-02T19:48:28.644Z,91.50
2022-12-02T19:50:55.160Z,98.72
2022-12-02T19:53:21.742Z,111.63
2022-12-02T19:55:48.177Z,102.00
2022-12-02T19:58:14.734Z,110.75
2022-12-02T20:00:41.221Z,99.18
2022-12-02T20:03:07.882Z,112.32
2022-12-02T20:05:34.511Z,97.15
2022-12-02T20:08:01.038Z,101.28
2022-12-02T20:10:27.707Z,96.95
2022-12-02T20:12:54.236Z,93.65
2022-12-02T20:15:20.655Z,87.68
2022-12-02T20:17:47.150Z,91.88
2022-12-02T20:20:14.036Z,101.72
2022-12-02T20:22:40.687Z,97.07
2022-12-02T20:25:07.888Z,99.85
2022-12-02T20:27:34.448Z,99.90
2022-12-02T20:30:01.029Z,112.97
2022-12-02T20:32:27.579Z,110.43
2022-12-02T20:34:54.326Z,97.85
2022-12-02T20:37:21.005Z,116.00
2022-12-02T20:39:47.560Z,120.45
2022-12-02T20:42:14.027Z,108.85
2022-12-02T20:44:40.585Z,122.05
2022-12-02T20:47:07.227Z,103.40
2022-12-02T20:49:33.697Z,93.80
2022-12-02T20:52:00.256Z,90.70
2022-12-02T20:54:27.232Z,109.82
2022-12-02T20:56:53.714Z,82.82
2022-12-02T20:59:20.198Z,107.40
2022-12-02T21:01:46.681Z,96.10
2022-12-02T21:04:13.224Z,106.68
2022-12-02T21:06:39.791Z,115.25
2022-12-02T21:09:06.204Z,88.40
2022-12-02T21:11:32.673Z,93.95
2022-12-02T21:13:59.153Z,102.85
2022-12-02T21:16:25.746Z,108.93
2022-12-02T21:18:52.339Z,98.72
2022-12-02T21:21:18.768Z,112.57
2022-12-02T21:23:45.216Z,131.50
2022-12-02T21:26:11.756Z,113.35
2022-12-02T21:28:38.228Z,122.50
2022-12-02T21:31:04.848Z,111.25
2022-12-02T21:33:31.472Z,100.78
2022-12-02T21:35:57.885Z,113.85
2022-12-02T21:38:24.413Z,127.18
2022-12-02T21:40:50.922Z,107.85
2022-12-02T21:43:17.462Z,96.82
2022-12-02T21:45:44.015Z,99.80
2022-12-02T21:48:10.569Z,105.50
2022-12-02T21:50:37.008Z,107.00
2022-12-02T21:53:03.938Z,94.40
2022-12-02T21:55:30.595Z,104.22
2022-12-02T21:57:57.072Z,110.85
2022-12-02T22:00:23.575Z,97.28
2022-12-02T22:02:50.008Z,92.90
2022-12-02T22:05:17.070Z,108.03
2022-12-02T22:07:44.759Z,132.23
2022-12-02T22:10:14.239Z,113.95
2022-12-02T22:12:40.812Z,102.20
2022-12-02T22:15:07.692Z,103.55
2022-12-02T22:17:34.306Z,104.75
2022-12-02T22:20:00.779Z,92.00
2022-12-02T22:22:27.250Z,94.18
2022-12-02T22:24:54.073Z,82.07
2022-12-02T22:27:20.749Z,81.38
2022-12-02T22:29:47.240Z,96.30
2022-12-02T22:32:13.906Z,97.85
2022-12-02T22:34:40.395Z,96.28
2022-12-02T22:37:06.917Z,108.22
2022-12-02T22:39:33.353Z,117.50
2022-12-02T22:42:00.110Z,91.57
2022-12-02T22:44:26.585Z,108.22
2022-12-02T22:46:53.420Z,92.68
2022-12-02T22:49:19.943Z,108.85
2022-12-02T22:51:46.473Z,100.75
2022-12-02T22:54:12.901Z,120.20
2022-12-02T22:56:39.336Z,108.40
2022-12-02T22:59:05.839Z,98.53
2022-12-02T23:01:33.806Z,94.43
2022-12-02T23:04:00.476Z,91.72
2022-12-02T23:06:26.891Z,102.00
2022-12-02T23:08:53.321Z,79.07
2022-12-02T23:11:19.753Z,110.47
2022-12-02T23:13:46.199Z,96.72
2022-12-02T23:16:12.639Z,101.25
2022-12-02T23:18:39.123Z,97.40
2022-12-02T23:21:05.706Z,117.50
2022-12-02T23:23:32.215Z,101.40
2022-12-02T23:25:58.635Z,94.72
2022-12-02T23:28:25.123Z,98.00
2022-12-02T23:30:51.678Z,110.88
2022-12-02T23:33:18.144Z,93.47
2022-12-02T23:35:44.692Z,102.15
2022-12-02T23:38:11.635Z,97.63
2022-12-02T23:40:38.080Z,98.35
2022-12-02T23:43:04.648Z,81.55
2022-12-02T23:45:31.132Z,97.88
2022-12-02T23:47:57.581Z,91.07
2022-12-02T23:50:23.991Z,93.40
2022-12-02T23:52:50.449Z,102.53
2022-12-02T23:55:16.968Z,92.60
2022-12-02T23:57:43.540Z,93.30
